Time;durP1;ratioP1;P1;durP2;ratioP2;P2;SDS_P1;SDS_P2;PMS_P1;PMS_P2;Temp;Humidity;BMP_temperature;BMP_pressure;BME280_temperature;BME280_humidity;BME280_pressure;Samples;Min_cycle;Max_cycle;Signal;HPM_P1;HPM_P2
2022/06/30 00:00:17;;;;;;;9.65;5.47;;;;;;;21.41;63.66;101211.91;4879957;28;120163;-80
2022/06/30 00:02:43;;;;;;;7.15;5.18;;;;;;;21.41;63.73;101214.69;4906357;28;120697;-81
2022/06/30 00:05:12;;;;;;;9.88;5.40;;;;;;;21.43;63.89;101223.31;4871975;28;123254;-81
2022/06/30 00:07:37;;;;;;;9.55;5.82;;;;;;;21.35;64.17;101221.56;4867540;28;122349;-81
2022/06/30 00:10:03;;;;;;;8.50;5.53;;;;;;;21.32;64.18;101214.22;4873594;28;122599;-81
2022/06/30 00:12:29;;;;;;;10.40;5.80;;;;;;;21.34;64.31;101225.63;4866569;28;123015;-81
2022/06/30 00:14:55;;;;;;;7.82;5.05;;;;;;;21.32;64.04;101223.38;4904204;28;120499;-81
2022/06/30 00:17:21;;;;;;;9.45;4.97;;;;;;;21.29;63.69;101215.22;4857172;28;124510;-81
2022/06/30 00:19:46;;;;;;;9.07;5.43;;;;;;;21.23;64.31;101209.66;4870615;28;120207;-81
2022/06/30 00:22:13;;;;;;;12.75;6.20;;;;;;;21.25;64.29;101220.31;4902499;28;119840;-81
2022/06/30 00:24:39;;;;;;;8.10;5.40;;;;;;;21.20;64.22;101219.03;4870079;28;123355;-81
2022/06/30 00:27:06;;;;;;;9.73;6.10;;;;;;;21.11;64.51;101203.34;4889928;28;120029;-81
2022/06/30 00:29:31;;;;;;;9.88;5.47;;;;;;;21.18;64.15;101218.03;4894504;28;120097;-81
2022/06/30 00:32:00;;;;;;;7.32;4.95;;;;;;;21.15;64.61;101219.81;4881967;28;123661;-81
2022/06/30 00:34:34;;;;;;;12.32;6.40;;;;;;;21.09;64.62;101219.09;4889252;28;120451;-81
2022/06/30 00:37:01;;;;;;;7.82;6.00;;;;;;;21.00;64.82;101208.19;4877290;28;122244;-81
2022/06/30 00:39:26;;;;;;;10.27;6.10;;;;;;;21.06;64.89;101218.09;4892492;28;120199;-81
2022/06/30 00:41:52;;;;;;;7.93;5.88;;;;;;;21.04;64.80;101209.44;4882358;28;122115;-81
2022/06/30 00:44:18;;;;;;;8.93;6.00;;;;;;;21.03;64.91;101212.75;4888774;28;123112;-81
2022/06/30 00:46:46;;;;;;;11.70;6.18;;;;;;;21.01;64.99;101209.72;4892336;28;120081;-81
2022/06/30 00:49:12;;;;;;;9.80;6.47;;;;;;;21.03;65.38;101215.53;4896128;28;120243;-81
2022/06/30 00:51:38;;;;;;;13.07;5.72;;;;;;;21.01;65.38;101218.06;4895746;28;120320;-81
2022/06/30 00:54:05;;;;;;;8.07;5.68;;;;;;;21.02;65.41;101223.13;4875093;28;119945;-81
2022/06/30 00:56:33;;;;;;;11.90;6.32;;;;;;;21.01;65.13;101210.47;4878698;28;122105;-81
2022/06/30 00:59:04;;;;;;;10.98;6.65;;;;;;;20.95;65.53;101206.94;4880399;28;120667;-80
2022/06/30 01:01:31;;;;;;;11.15;6.50;;;;;;;21.04;65.75;101217.81;4885787;28;122789;-81
2022/06/30 01:03:58;;;;;;;11.27;5.85;;;;;;;20.99;65.87;101220.63;4883693;28;121882;-81
2022/06/30 01:06:48;;;;;;;10.48;6.53;;;;;;;21.03;65.39;101229.47;4891192;28;120152;-81
2022/06/30 01:12:41;;;;;;;11.23;6.45;;;;;;;21.03;65.81;101235.06;4881241;28;120248;-81
2022/06/30 01:14:52;;;;;;;7.22;5.95;;;;;;;21.02;66.26;101222.38;4873557;28;121257;-81
2022/06/30 01:17:18;;;;;;;11.05;6.18;;;;;;;21.01;66.02;101229.22;4893133;28;122499;-81
2022/06/30 01:19:54;;;;;;;10.05;6.18;;;;;;;21.00;65.96;101230.50;4875919;28;123741;-81
2022/06/30 01:22:19;;;;;;;9.32;5.80;;;;;;;20.96;66.38;101218.84;4890336;28;120557;-81
2022/06/30 01:24:48;;;;;;;10.05;6.47;;;;;;;20.98;66.60;101225.44;4864239;28;123261;-81
2022/06/30 01:27:13;;;;;;;11.02;6.50;;;;;;;20.99;66.39;101223.41;4891708;28;119847;-81
2022/06/30 01:29:39;;;;;;;16.25;6.90;;;;;;;21.04;66.77;101222.63;4896861;28;120640;-81
2022/06/30 01:32:05;;;;;;;10.88;6.53;;;;;;;21.03;66.88;101219.09;4887660;28;121033;-81
2022/06/30 01:34:31;;;;;;;14.05;6.40;;;;;;;21.05;66.92;101215.78;4886819;28;120629;-81
2022/06/30 01:36:59;;;;;;;10.38;6.45;;;;;;;21.09;66.75;101221.88;4894807;28;122078;-81
2022/06/30 01:39:25;;;;;;;9.30;6.70;;;;;;;21.01;66.37;101210.47;4876679;28;124447;-81
2022/06/30 01:41:51;;;;;;;12.02;6.93;;;;;;;21.05;66.38;101210.19;4894275;28;120092;-81
2022/06/30 01:44:17;;;;;;;12.63;6.47;;;;;;;21.09;66.44;101217.06;4878310;28;122669;-82
2022/06/30 01:46:50;;;;;;;13.55;7.13;;;;;;;21.11;66.59;101210.97;4891079;28;120722;-81
2022/06/30 01:49:16;;;;;;;13.95;6.72;;;;;;;21.11;66.44;101210.97;4901173;28;120439;-81
2022/06/30 01:51:45;;;;;;;13.18;6.90;;;;;;;21.17;66.48;101222.09;4875299;28;123942;-81
2022/06/30 01:54:11;;;;;;;11.93;6.80;;;;;;;21.18;66.64;101218.03;4896541;28;121249;-81
2022/06/30 01:56:38;;;;;;;10.90;7.35;;;;;;;21.17;66.22;101210.94;4867763;28;122336;-81
2022/06/30 01:59:05;;;;;;;13.07;7.30;;;;;;;21.20;66.64;101216.25;4852356;28;123090;-81
2022/06/30 02:01:32;;;;;;;10.52;7.30;;;;;;;21.18;66.51;101206.88;4881849;28;120330;-81
2022/06/30 02:04:46;;;;;;;11.80;7.78;;;;;;;21.20;66.38;101207.88;4881200;28;122713;-81
2022/06/30 02:06:47;;;;;;;9.60;7.20;;;;;;;21.14;66.53;101191.16;4867147;28;123197;-81
2022/06/30 02:09:13;;;;;;;13.60;8.43;;;;;;;21.20;66.52;101201.56;4916908;28;120402;-81
2022/06/30 02:11:38;;;;;;;10.00;7.25;;;;;;;21.13;66.33;101192.44;4899244;28;123610;-81
2022/06/30 02:14:04;;;;;;;12.98;8.40;;;;;;;21.20;66.73;101193.94;4884379;28;120423;-81
2022/06/30 02:16:30;;;;;;;13.40;8.77;;;;;;;21.14;66.29;101184.84;4868585;28;122761;-81
2022/06/30 02:18:56;;;;;;;14.15;8.38;;;;;;;21.19;66.39;101186.09;4863273;28;123622;-81
2022/06/30 02:21:22;;;;;;;13.68;8.10;;;;;;;21.18;66.02;101176.19;4873512;28;120475;-81
2022/06/30 02:23:48;;;;;;;12.95;8.52;;;;;;;21.14;66.10;101174.44;4882023;28;122085;-81
2022/06/30 02:26:13;;;;;;;10.70;8.07;;;;;;;21.13;66.30;101163.78;4896300;28;120412;-81
2022/06/30 02:28:39;;;;;;;12.45;8.45;;;;;;;21.14;66.15;101184.84;4863684;28;122844;-81
2022/06/30 02:31:04;;;;;;;13.27;8.93;;;;;;;21.15;66.28;101187.13;4874889;28;123064;-81
2022/06/30 02:33:36;;;;;;;11.43;9.30;;;;;;;21.12;65.96;101176.97;4907737;28;120635;-81
2022/06/30 02:36:02;;;;;;;12.52;9.60;;;;;;;21.10;66.22;101173.19;4882336;28;122577;-80
2022/06/30 02:38:30;;;;;;;16.35;10.43;;;;;;;21.13;66.69;101170.13;4891020;28;120367;-81
2022/06/30 02:40:56;;;;;;;16.15;10.50;;;;;;;21.10;66.12;101167.63;4904568;28;120269;-81
2022/06/30 02:43:21;;;;;;;13.18;10.32;;;;;;;21.12;66.15;101170.66;4910649;28;120079;-81
2022/06/30 02:45:47;;;;;;;13.25;10.25;;;;;;;21.05;66.03;101160.00;4904410;28;120828;-81
2022/06/30 02:48:13;;;;;;;16.40;10.52;;;;;;;21.09;66.21;101166.09;4863168;28;120337;-81
2022/06/30 02:50:39;;;;;;;19.42;10.48;;;;;;;21.06;66.16;101167.13;4913545;28;120351;-81
2022/06/30 02:53:04;;;;;;;19.15;11.98;;;;;;;21.04;66.46;101169.63;4869805;28;120454;-81
2022/06/30 02:55:30;;;;;;;17.38;12.10;;;;;;;21.05;66.36;101176.72;4896726;28;120055;-81
2022/06/30 02:57:55;;;;;;;17.38;12.60;;;;;;;20.97;66.94;101147.88;4898894;28;120214;-80
2022/06/30 03:00:22;;;;;;;18.10;12.27;;;;;;;21.03;66.69;101162.53;4891198;28;122889;-80
2022/06/30 03:02:47;;;;;;;14.60;12.38;;;;;;;21.02;66.50;101161.03;4896125;28;120423;-80
2022/06/30 03:05:13;;;;;;;18.52;13.20;;;;;;;20.99;66.60;101150.91;4892683;28;120771;-80
2022/06/30 03:07:41;;;;;;;19.98;13.23;;;;;;;21.01;66.92;101149.13;4894981;28;121251;-81
2022/06/30 03:10:07;;;;;;;17.73;13.60;;;;;;;20.96;66.33;101158.25;4881615;28;122333;-81
2022/06/30 03:12:33;;;;;;;18.55;12.82;;;;;;;20.96;66.52;101158.25;4873677;28;120499;-81
2022/06/30 03:14:59;;;;;;;17.10;13.00;;;;;;;20.95;66.93;101162.31;4875148;28;122885;-80
2022/06/30 03:17:25;;;;;;;18.88;13.50;;;;;;;20.96;66.79;101157.50;4894917;28;121042;-80
2022/06/30 03:19:54;;;;;;;19.80;13.82;;;;;;;20.99;66.71;101160.03;4879054;28;120329;-80
2022/06/30 03:22:19;;;;;;;20.83;14.20;;;;;;;20.97;66.58;101147.88;4895344;28;120366;-81
2022/06/30 03:24:45;;;;;;;18.52;13.50;;;;;;;20.95;66.80;101151.16;4870761;28;124196;-81
2022/06/30 03:27:10;;;;;;;18.17;13.68;;;;;;;20.94;66.98;101155.22;4888300;28;120030;-81
2022/06/30 03:29:36;;;;;;;21.90;13.90;;;;;;;20.94;67.07;101157.25;4875700;28;122189;-80
2022/06/30 03:32:05;;;;;;;18.65;13.45;;;;;;;20.98;66.88;101166.88;4860440;28;124177;-80
2022/06/30 03:34:30;;;;;;;17.38;11.85;;;;;;;20.98;67.13;101149.38;4892393;28;127235;-80
2022/06/30 03:36:56;;;;;;;15.95;12.98;;;;;;;21.00;67.32;101160.78;4873289;28;123713;-80
2022/06/30 03:39:22;;;;;;;19.45;12.25;;;;;;;21.02;67.18;101152.66;4874584;28;120386;-80
2022/06/30 03:41:48;;;;;;;18.95;12.35;;;;;;;21.08;66.85;101153.41;4905001;28;120659;-80
2022/06/30 03:44:13;;;;;;;18.85;11.85;;;;;;;21.09;67.49;101160.50;4889356;28;121141;-80
2022/06/30 03:46:39;;;;;;;16.83;11.25;;;;;;;21.12;67.46;101154.66;4889446;28;120355;-80
2022/06/30 03:49:04;;;;;;;19.08;11.75;;;;;;;21.11;67.02;101152.38;4906536;28;122425;-80
2022/06/30 03:51:30;;;;;;;18.00;10.93;;;;;;;21.15;67.56;101155.66;4890644;28;121676;-80
2022/06/30 03:53:56;;;;;;;15.10;10.30;;;;;;;21.19;67.21;101152.59;4887205;28;120191;-80
2022/06/30 03:56:23;;;;;;;18.25;10.15;;;;;;;21.22;67.76;101152.34;4890990;28;120545;-80
2022/06/30 03:58:49;;;;;;;13.68;9.23;;;;;;;21.28;68.02;101155.88;4879044;28;120869;-80
2022/06/30 04:01:14;;;;;;;15.05;9.13;;;;;;;21.28;67.61;101143.97;4882795;28;120776;-80
2022/06/30 04:03:40;;;;;;;19.25;8.45;;;;;;;21.35;68.40;101151.81;4894795;28;121006;-80
2022/06/30 04:06:05;;;;;;;16.45;8.43;;;;;;;21.46;67.82;101162.91;4857495;28;120775;-80
2022/06/30 04:08:31;;;;;;;17.52;8.25;;;;;;;21.51;67.77;101155.78;4889903;28;121417;-80
2022/06/30 04:10:57;;;;;;;13.75;8.23;;;;;;;21.53;67.68;101139.28;4881407;28;123315;-80
2022/06/30 04:13:22;;;;;;;13.77;7.72;;;;;;;21.53;67.63;101130.91;4906123;28;121090;-79
2022/06/30 04:16:00;;;;;;;15.65;7.93;;;;;;;21.64;67.62;101142.78;4882349;28;120656;-80
2022/06/30 04:18:26;;;;;;;13.82;7.35;;;;;;;21.72;67.22;101148.56;4905075;28;121016;-80
2022/06/30 04:20:51;;;;;;;12.30;7.30;;;;;;;21.70;67.05;101137.91;4900639;28;120738;-80
2022/06/30 04:23:17;;;;;;;11.15;6.90;;;;;;;21.77;67.13;101142.19;4898549;28;122819;-80
2022/06/30 04:25:43;;;;;;;12.93;6.85;;;;;;;21.79;66.77;101139.66;4858299;28;122343;-80
2022/06/30 04:28:08;;;;;;;10.35;6.40;;;;;;;21.78;66.66;101140.16;4894005;28;122756;-80
2022/06/30 04:33:38;;;;;;;8.63;6.55;;;;;;;21.92;66.39;101145.38;4827787;29;121016;-80
2022/06/30 04:36:04;;;;;;;14.35;6.80;;;;;;;21.93;66.78;101144.09;4837116;29;123453;-79
2022/06/30 04:38:30;;;;;;;14.82;6.32;;;;;;;21.95;66.97;101135.97;4846219;28;121181;-80
2022/06/30 04:43:43;;;;;;;12.60;6.53;;;;;;;21.94;66.94;101122.53;4868791;28;123549;-80
2022/06/30 04:46:11;;;;;;;12.57;6.63;;;;;;;21.91;67.19;101115.19;4856841;28;121381;-80
2022/06/30 04:48:37;;;;;;;11.48;6.18;;;;;;;21.99;67.63;101127.28;4873737;28;121279;-80
2022/06/30 04:51:02;;;;;;;12.15;6.18;;;;;;;22.06;67.03;101126.78;4850756;28;122528;-80
2022/06/30 04:53:28;;;;;;;10.82;6.13;;;;;;;22.01;66.96;101116.38;4861494;28;121550;-80
2022/06/30 04:55:54;;;;;;;10.90;6.85;;;;;;;22.10;66.89;101123.72;4902828;28;121423;-80
2022/06/30 04:58:19;;;;;;;14.65;7.32;;;;;;;22.07;67.20;101119.16;4899510;28;121817;-80
2022/06/30 05:00:45;;;;;;;12.82;6.70;;;;;;;22.05;66.58;101117.66;4890730;28;123816;-80
2022/06/30 05:03:10;;;;;;;11.75;6.93;;;;;;;22.11;66.71;101120.38;4902703;28;122296;-80
2022/06/30 05:05:36;;;;;;;12.25;7.20;;;;;;;22.15;67.05;101128.47;4887774;28;121624;-80
2022/06/30 05:08:02;;;;;;;12.63;6.93;;;;;;;22.11;66.89;101122.44;4891129;28;121326;-80
2022/06/30 05:10:27;;;;;;;12.98;6.70;;;;;;;22.20;66.97;101130.47;4893876;28;121645;-80
2022/06/30 05:12:53;;;;;;;14.38;7.05;;;;;;;22.13;66.63;101119.88;4874321;28;121565;-80
2022/06/30 05:15:19;;;;;;;12.05;6.75;;;;;;;22.18;67.18;101127.44;4880448;28;121822;-80
2022/06/30 05:17:45;;;;;;;11.45;6.57;;;;;;;22.20;66.49;101141.63;4869132;28;124335;-80
2022/06/30 05:20:11;;;;;;;12.77;6.22;;;;;;;22.24;66.38;101142.09;4882902;28;121570;-80
2022/06/30 05:22:36;;;;;;;11.15;6.00;;;;;;;22.24;66.65;101133.72;4893971;28;122101;-80
2022/06/30 05:27:47;;;;;;;12.27;6.70;;;;;;;22.24;66.45;101119.75;4881316;28;124286;-80
2022/06/30 05:30:14;;;;;;;10.30;6.15;;;;;;;22.31;66.42;101127.59;4883221;28;126029;-80
2022/06/30 05:33:00;;;;;;;10.68;6.15;;;;;;;22.32;66.60;101126.31;4883931;28;122081;-79
2022/06/30 05:35:26;;;;;;;14.25;5.88;;;;;;;22.28;66.07;101120.25;4893999;28;121861;-80
2022/06/30 05:37:52;;;;;;;8.85;5.70;;;;;;;22.38;66.32;101140.22;4877406;28;122115;-80
2022/06/30 05:40:18;;;;;;;11.05;5.43;;;;;;;22.33;66.23;101125.78;4882650;28;121756;-80
2022/06/30 05:42:43;;;;;;;12.15;6.03;;;;;;;22.43;65.78;101137.38;4878201;28;124948;-80
2022/06/30 05:45:35;;;;;;;11.10;5.13;;;;;;;22.43;65.60;101120.59;4868219;28;121729;-80
2022/06/30 05:48:01;;;;;;;10.63;5.90;;;;;;;22.40;65.68;101120.91;4859692;28;124162;-79
2022/06/30 05:50:58;;;;;;;12.05;4.93;;;;;;;22.48;66.04;101133.03;4830439;29;122507;-80
2022/06/30 05:53:24;;;;;;;10.55;4.82;;;;;;;22.40;66.18;101127.25;4827005;28;121729;-80
2022/06/30 05:55:49;;;;;;;10.70;5.43;;;;;;;22.53;65.82;101144.16;4866034;28;124325;-80
2022/06/30 05:58:17;;;;;;;7.63;5.20;;;;;;;22.57;65.75;101141.81;4888570;28;125340;-80
2022/06/30 06:00:42;;;;;;;11.50;5.15;;;;;;;22.54;65.89;101140.06;4888889;28;122398;-80
2022/06/30 06:03:08;;;;;;;10.48;4.90;;;;;;;22.56;66.03;101131.91;4881136;28;122164;-79
2022/06/30 06:05:34;;;;;;;8.05;4.78;;;;;;;22.59;65.57;101133.66;4881987;28;122168;-80
2022/06/30 06:08:05;;;;;;;6.88;4.82;;;;;;;22.62;66.08;101137.44;4878492;28;124762;-79
2022/06/30 06:10:31;;;;;;;11.90;5.72;;;;;;;22.61;65.44;101127.56;4886069;28;124890;-80
2022/06/30 06:13:19;;;;;;;11.13;4.65;;;;;;;22.67;65.63;101134.59;4879839;28;122336;-80
2022/06/30 06:15:53;;;;;;;;;;;;;;;22.68;65.49;101132.56;4900593;28;121939;-80
2022/06/30 06:18:19;;;;;;;8.20;4.57;;;;;;;22.64;64.82;101132.84;4878007;28;125354;-80
2022/06/30 06:20:45;;;;;;;9.70;5.32;;;;;;;22.67;65.02;101137.38;4914761;28;123333;-80
2022/06/30 06:23:11;;;;;;;9.40;5.25;;;;;;;22.74;65.40;101143.69;4870209;28;123805;-80
2022/06/30 06:25:36;;;;;;;9.60;5.22;;;;;;;22.71;65.51;101130.75;4857722;28;125779;-80
2022/06/30 06:30:48;;;;;;;;;;;;;;;22.77;65.58;101153.84;4877781;28;124876;-80
2022/06/30 06:33:17;;;;;;;11.20;4.88;;;;;;;22.76;65.11;101141.13;4893999;28;122377;-79
2022/06/30 06:35:42;;;;;;;8.20;4.78;;;;;;;22.79;65.27;101140.09;4853135;28;124126;-80
2022/06/30 06:38:08;;;;;;;12.13;4.70;;;;;;;22.78;64.83;101144.16;4887520;28;124853;-80
2022/06/30 06:40:53;;;;;;;11.07;4.80;;;;;;;22.83;65.22;101148.97;4863033;28;122332;-80
2022/06/30 06:43:19;;;;;;;7.93;4.53;;;;;;;22.80;64.08;101136.75;4881887;28;124239;-79
2022/06/30 06:45:44;;;;;;;6.72;4.05;;;;;;;22.86;64.58;101145.88;4894170;28;123899;-79
2022/06/30 06:48:10;;;;;;;9.55;4.40;;;;;;;22.92;63.88;101148.59;4902792;28;122038;-80
2022/06/30 06:50:36;;;;;;;9.38;4.05;;;;;;;22.89;63.44;101127.28;4895460;28;122564;-79
2022/06/30 06:53:03;;;;;;;8.25;4.30;;;;;;;22.89;62.88;101130.06;4883254;28;121977;-79
2022/06/30 06:55:30;;;;;;;11.05;4.00;;;;;;;22.91;63.51;101130.28;4890354;28;122774;-80
2022/06/30 06:57:55;;;;;;;11.20;4.38;;;;;;;22.95;62.75;101125.19;4881215;28;125147;-80
2022/06/30 07:00:44;;;;;;;8.52;4.10;;;;;;;22.96;63.49;101132.28;4856439;28;122409;-80
2022/06/30 07:03:10;;;;;;;6.85;3.80;;;;;;;22.99;63.32;101138.88;4898680;28;124969;-80
2022/06/30 07:05:36;;;;;;;7.47;4.10;;;;;;;22.98;62.76;101135.31;4879605;28;122189;-80
2022/06/30 07:08:02;;;;;;;5.82;3.90;;;;;;;22.98;62.02;101135.31;4866434;28;121855;-79
2022/06/30 07:10:28;;;;;;;10.35;3.90;;;;;;;23.06;62.07;101135.47;4880690;28;124593;-79
2022/06/30 07:12:54;;;;;;;8.07;3.45;;;;;;;23.06;62.02;101144.63;4872112;28;124540;-79
2022/06/30 07:15:21;;;;;;;7.97;3.63;;;;;;;23.11;62.11;101146.59;4912872;28;122611;-79
2022/06/30 07:17:48;;;;;;;9.25;3.90;;;;;;;23.10;62.26;101138.72;4881228;28;124998;-79
2022/06/30 07:20:14;;;;;;;6.65;3.85;;;;;;;23.11;62.66;101134.66;4893801;28;122736;-80
2022/06/30 07:22:40;;;;;;;6.43;3.90;;;;;;;23.12;62.89;101136.91;4897041;28;124162;-79
2022/06/30 07:25:06;;;;;;;8.80;4.38;;;;;;;23.14;63.49;101147.59;4875277;28;122672;-80
2022/06/30 07:27:32;;;;;;;7.50;4.38;;;;;;;23.14;63.36;101139.94;4858378;28;122055;-80
2022/06/30 07:29:58;;;;;;;8.55;4.50;;;;;;;23.13;62.71;101141.22;4861482;28;124274;-80
2022/06/30 07:32:24;;;;;;;6.00;4.18;;;;;;;23.19;62.31;101138.38;4868990;28;125534;-80
2022/06/30 07:34:50;;;;;;;8.02;4.40;;;;;;;23.20;62.70;101134.31;4899520;28;122432;-80
2022/06/30 07:37:16;;;;;;;7.78;4.00;;;;;;;23.25;61.63;101128.63;4861963;28;125079;-80
2022/06/30 07:39:41;;;;;;;7.43;4.10;;;;;;;23.22;61.50;101138.09;4849209;28;122779;-79
2022/06/30 07:42:07;;;;;;;6.65;3.70;;;;;;;23.31;61.32;101134.16;4863615;28;125466;-80
2022/06/30 07:44:59;;;;;;;6.97;3.60;;;;;;;23.35;59.94;101133.84;4827667;28;122891;-80
2022/06/30 07:47:25;;;;;;;7.50;3.90;;;;;;;23.38;61.30;101129.97;4857216;28;122311;-80
2022/06/30 07:49:51;;;;;;;8.07;3.92;;;;;;;23.41;61.71;101128.91;4879084;28;121939;-80
2022/06/30 07:52:19;;;;;;;8.52;4.30;;;;;;;23.50;60.46;101134.16;4878149;28;122544;-79
2022/06/30 07:54:44;;;;;;;7.03;3.72;;;;;;;23.50;59.83;101129.31;4886049;28;122191;-79
2022/06/30 07:57:12;;;;;;;4.85;3.47;;;;;;;23.55;59.37;101133.31;4880155;28;122297;-79
2022/06/30 07:59:39;;;;;;;8.50;3.75;;;;;;;23.63;60.02;101139.84;4869710;28;122235;-79
2022/06/30 08:02:05;;;;;;;9.35;3.90;;;;;;;23.72;59.72;101144.31;4888464;28;124477;-79
2022/06/30 08:04:30;;;;;;;8.63;4.05;;;;;;;23.82;58.60;101137.78;4889676;28;122571;-79
2022/06/30 08:06:56;;;;;;;7.78;3.38;;;;;;;23.91;59.41;101124.69;4874809;28;122185;-79
2022/06/30 08:09:22;;;;;;;7.90;3.42;;;;;;;24.01;59.94;101128.59;4859120;28;122796;-80
2022/06/30 08:11:47;;;;;;;6.80;3.33;;;;;;;24.05;60.07;101120.63;4890969;28;122288;-79
2022/06/30 08:14:16;;;;;;;8.52;3.65;;;;;;;24.16;59.00;101121.19;4886180;28;122457;-79
2022/06/30 08:16:41;;;;;;;7.03;3.53;;;;;;;24.27;58.82;101114.63;4887611;28;123091;-79
2022/06/30 08:19:07;;;;;;;8.20;3.35;;;;;;;24.36;58.36;101117.03;4857168;28;123528;-80
2022/06/30 08:21:33;;;;;;;5.78;3.20;;;;;;;24.46;59.44;101109.75;4890791;28;125038;-79
2022/06/30 08:23:58;;;;;;;6.20;3.50;;;;;;;24.57;59.11;101108.00;4884448;28;122402;-79
2022/06/30 08:26:24;;;;;;;13.02;3.47;;;;;;;24.67;58.64;101106.31;4858582;28;122344;-79
2022/06/30 08:28:49;;;;;;;6.47;3.38;;;;;;;24.68;58.06;101102.19;4875937;28;122726;-80
2022/06/30 08:31:16;;;;;;;7.70;3.25;;;;;;;24.78;58.49;101100.47;4872785;28;125419;-80
2022/06/30 08:33:41;;;;;;;6.30;3.28;;;;;;;24.86;58.35;101101.34;4868633;28;123029;-79
2022/06/30 08:36:10;;;;;;;4.25;2.80;;;;;;;25.01;58.25;101104.34;4892226;28;124525;-79
2022/06/30 08:38:35;;;;;;;5.78;3.20;;;;;;;25.15;58.16;101104.34;4888036;28;122158;-79
2022/06/30 08:43:45;;;;;;;6.53;2.90;;;;;;;25.28;57.12;101109.91;4884834;28;125870;-80
2022/06/30 08:46:12;;;;;;;6.55;2.92;;;;;;;25.27;57.08;101111.97;4903783;28;122304;-79
2022/06/30 08:48:40;;;;;;;3.65;2.50;;;;;;;25.19;55.73;101094.28;4886865;28;125009;-80
2022/06/30 08:51:07;;;;;;;7.78;2.70;;;;;;;25.22;54.93;101112.84;4884876;28;125546;-80
2022/06/30 08:53:55;;;;;;;5.13;2.70;;;;;;;25.26;55.39;101116.06;4886648;28;122438;-81
2022/06/30 08:56:23;;;;;;;8.15;3.05;;;;;;;25.24;56.81;101101.84;4853395;28;124566;-80
2022/06/30 08:58:51;;;;;;;6.22;2.72;;;;;;;25.34;56.66;101121.81;4906683;28;123648;-80
2022/06/30 09:01:17;;;;;;;6.20;2.75;;;;;;;25.32;55.69;101115.97;4871565;28;122739;-80
2022/06/30 09:03:46;;;;;;;4.97;2.90;;;;;;;25.30;54.15;101104.50;4871272;28;126418;-80
2022/06/30 09:06:13;;;;;;;4.65;2.50;;;;;;;25.27;54.68;101105.59;4885565;28;122548;-79
2022/06/30 09:08:38;;;;;;;7.13;2.67;;;;;;;25.27;53.79;101105.59;4870238;28;124765;-80
2022/06/30 09:11:04;;;;;;;6.25;2.22;;;;;;;25.23;53.19;101110.78;4870482;28;125416;-80
2022/06/30 09:14:00;;;;;;;6.95;2.53;;;;;;;25.15;52.35;101104.34;4868836;28;122389;-80
2022/06/30 09:16:25;;;;;;;8.07;2.80;;;;;;;25.06;53.59;101097.13;4872021;28;122340;-80
2022/06/30 09:18:58;;;;;;;4.85;2.42;;;;;;;25.11;53.75;101109.53;4902277;28;125775;-80
2022/06/30 09:21:26;;;;;;;5.07;2.33;;;;;;;25.01;54.14;101098.75;4892658;28;122659;-80
2022/06/30 09:23:51;;;;;;;5.47;2.40;;;;;;;25.07;54.79;101104.22;4886985;28;125147;-80
2022/06/30 09:26:22;;;;;;;5.70;2.45;;;;;;;25.07;56.41;101104.97;4883961;28;124103;-80
2022/06/30 09:28:54;;;;;;;;;;;;;;;25.08;55.69;101106.53;4872833;28;123397;-79
2022/06/30 09:31:42;;;;;;;5.10;2.53;;;;;;;25.11;56.25;101103.94;4902679;28;122821;-79
2022/06/30 09:34:21;;;;;;;7.72;2.70;;;;;;;25.13;55.80;101095.72;4889038;28;122434;-79
2022/06/30 09:37:17;;;;;;;3.28;2.25;;;;;;;25.18;56.57;101103.25;4866944;28;122107;-80
2022/06/30 09:39:43;;;;;;;3.65;2.20;;;;;;;25.17;55.12;101096.13;4871677;28;126242;-79
2022/06/30 09:42:09;;;;;;;3.40;2.17;;;;;;;25.22;54.41;101103.69;4871076;28;122666;-79
2022/06/30 09:44:35;;;;;;;3.25;2.20;;;;;;;25.23;55.25;101091.91;4872816;28;122245;-79
2022/06/30 09:47:10;;;;;;;3.70;2.00;;;;;;;25.20;53.45;101083.81;4854671;28;122064;-80
2022/06/30 09:49:40;;;;;;;5.97;2.20;;;;;;;25.30;53.72;101099.66;4840289;28;125453;-80
2022/06/30 09:52:24;;;;;;;6.22;2.40;;;;;;;25.28;54.23;101090.25;4902947;28;122333;-80
2022/06/30 09:55:07;;;;;;;4.35;2.15;;;;;;;25.32;51.88;101090.72;4870308;28;122980;-79
2022/06/30 09:57:47;;;;;;;6.70;2.15;;;;;;;25.32;52.38;101099.88;4870478;28;122480;-80
2022/06/30 10:00:16;;;;;;;6.53;2.38;;;;;;;25.33;52.90;101098.59;4883937;28;125836;-80
2022/06/30 10:02:47;;;;;;;5.65;2.20;;;;;;;25.25;52.14;101080.13;4840367;28;121964;-80
2022/06/30 10:05:15;;;;;;;4.57;2.35;;;;;;;25.33;52.09;101090.16;4887866;28;122182;-79
2022/06/30 10:07:41;;;;;;;6.85;2.40;;;;;;;25.33;52.98;101080.97;4866600;28;123303;-80
2022/06/30 10:10:14;;;;;;;6.50;2.63;;;;;;;25.36;54.38;101093.94;4884247;28;123439;-80
2022/06/30 10:12:43;;;;;;;7.90;2.47;;;;;;;25.28;50.25;101073.41;4839056;28;125144;-80
2022/06/30 10:15:11;;;;;;;5.68;2.38;;;;;;;25.26;52.14;101064.78;4853060;28;123035;-79
2022/06/30 10:17:46;;;;;;;4.43;2.10;;;;;;;25.34;53.00;101071.25;4886871;28;122566;-79
2022/06/30 10:20:12;;;;;;;5.13;1.90;;;;;;;25.36;50.68;101065.84;4885258;28;125312;-79
2022/06/30 10:22:42;;;;;;;4.32;2.05;;;;;;;25.32;49.77;101062.63;4870133;28;123990;-79
2022/06/30 10:25:09;;;;;;;7.32;2.30;;;;;;;25.33;51.35;101059.28;4884882;28;124518;-79
2022/06/30 10:27:56;;;;;;;7.50;2.33;;;;;;;25.43;52.17;101070.78;4846096;28;122954;-80
2022/06/30 10:30:30;;;;;;;4.00;2.53;;;;;;;25.43;52.18;101067.22;4874591;28;122635;-80
2022/06/30 10:33:32;;;;;;;4.25;2.20;;;;;;;25.44;50.34;101065.94;4888175;28;122743;-80
2022/06/30 10:36:27;;;;;;;3.67;2.20;;;;;;;25.46;51.62;101071.75;4883558;28;122590;-79
2022/06/30 10:39:26;;;;;;;4.47;2.70;;;;;;;25.46;52.44;101063.31;4863869;28;123779;-80
2022/06/30 10:41:51;;;;;;;5.70;2.63;;;;;;;25.43;51.45;101056.00;4884532;28;126066;-80
2022/06/30 10:44:22;;;;;;;6.05;2.70;;;;;;;25.46;50.79;101066.13;4884711;28;122493;-80
2022/06/30 10:46:48;;;;;;;3.10;2.03;;;;;;;25.45;50.04;101068.19;4885846;28;124311;-80
2022/06/30 10:49:14;;;;;;;5.43;2.00;;;;;;;25.39;50.37;101051.47;4851729;28;125520;-80
2022/06/30 10:51:40;;;;;;;8.80;2.95;;;;;;;25.47;51.87;101057.16;4873942;28;122129;-79
2022/06/30 10:54:08;;;;;;;5.13;2.72;;;;;;;25.46;53.21;101046.47;4868973;28;125469;-80
2022/06/30 10:56:49;;;;;;;10.55;2.63;;;;;;;25.50;51.48;101050.44;4852665;28;122433;-80
2022/06/30 10:59:17;;;;;;;5.05;2.40;;;;;;;25.50;50.02;101050.44;4870181;28;125146;-79
2022/06/30 11:02:08;;;;;;;5.55;2.33;;;;;;;25.50;49.77;101044.06;4867141;28;123013;-79
2022/06/30 11:05:20;;;;;;;13.80;2.90;;;;;;;25.50;51.53;101047.63;4886016;28;123386;-80
2022/06/30 11:07:46;;;;;;;6.35;2.28;;;;;;;25.42;49.17;101032.78;4870140;28;124495;-80
2022/06/30 11:10:40;;;;;;;4.63;2.20;;;;;;;25.49;48.69;101054.56;4869897;28;123069;-79
2022/06/30 11:13:07;;;;;;;5.40;2.30;;;;;;;25.39;48.49;101026.19;4882269;28;123056;-79
2022/06/30 11:15:49;;;;;;;6.32;2.30;;;;;;;25.53;50.04;101038.13;4898318;28;122503;-79
2022/06/30 11:18:15;;;;;;;3.92;2.40;;;;;;;25.51;51.09;101031.53;4861080;28;122905;-79
2022/06/30 11:20:44;;;;;;;4.82;2.40;;;;;;;25.45;50.05;101022.50;4859229;28;123432;-79
2022/06/30 11:23:10;;;;;;;5.53;2.38;;;;;;;25.51;48.53;101028.72;4842517;28;126177;-79
2022/06/30 11:28:24;;;;;;;5.97;2.20;;;;;;;25.50;49.17;101024.41;4901925;28;123707;-79
2022/06/30 11:30:49;;;;;;;4.00;2.30;;;;;;;25.56;49.32;101020.19;4886065;28;122908;-80
2022/06/30 11:33:16;;;;;;;4.45;2.13;;;;;;;25.57;50.67;101018.88;4876527;28;122642;-80
2022/06/30 11:35:43;;;;;;;6.63;2.60;;;;;;;25.51;51.65;101012.63;4844469;28;124974;-79
2022/06/30 11:38:09;;;;;;;13.90;3.03;;;;;;;25.58;51.12;101026.00;4898765;28;123403;-80